Time;durP1;ratioP1;P1;durP2;ratioP2;P2;SDS_P1;SDS_P2;PMS_P1;PMS_P2;Temp;Humidity;BMP_temperature;BMP_pressure;BME280_temperature;BME280_humidity;BME280_pressure;Samples;Min_cycle;Max_cycle;Signal;HPM_P1;HPM_P2
2023/07/29 08:27:07;;;;;;;2.75;0.50;;;25.00;99.90;;;;;;3751552;23;20234;-73
2023/07/29 08:29:34;;;;;;;0.57;0.40;;;25.10;99.90;;;;;;4994976;28;20234;-73
2023/07/29 08:32:00;;;;;;;1.30;0.50;;;24.60;99.90;;;;;;4995447;28;20566;-73
2023/07/29 08:34:27;;;;;;;0.50;0.50;;;24.40;99.90;;;;;;4995104;28;20226;-73
2023/07/29 08:36:54;;;;;;;1.02;0.50;;;24.50;99.90;;;;;;4995002;28;20570;-73
2023/07/29 08:39:21;;;;;;;0.50;0.35;;;24.80;99.90;;;;;;4994875;28;20551;-73
2023/07/29 08:41:54;;;;;;;0.60;0.40;;;25.10;99.90;;;;;;4995163;28;20234;-73
2023/07/29 08:44:26;;;;;;;1.15;0.55;;;25.20;99.90;;;;;;4994997;28;20242;-73
2023/07/29 08:46:53;;;;;;;0.82;0.60;;;25.40;99.90;;;;;;4995053;28;20269;-74
2023/07/29 08:49:22;;;;;;;1.40;0.43;;;25.90;99.90;;;;;;4994959;28;20211;-73
2023/07/29 08:54:21;;;;;;;1.17;0.50;;;26.50;99.90;;;;;;5111011;27;20559;-76
2023/07/29 08:56:47;;;;;;;0.60;0.30;;;26.70;99.90;;;;;;5111127;28;20212;-75
2023/07/29 08:59:16;;;;;;;0.40;0.40;;;26.10;99.90;;;;;;5110454;28;20296;-74
2023/07/29 09:01:43;;;;;;;0.90;0.50;;;26.00;99.90;;;;;;5110596;28;20202;-74
2023/07/29 09:04:10;;;;;;;0.60;0.40;;;25.90;99.90;;;;;;5097965;28;20225;-74
2023/07/29 09:06:38;;;;;;;1.17;0.50;;;26.40;99.90;;;;;;5110363;28;20205;-75
2023/07/29 09:09:05;;;;;;;0.63;0.40;;;27.30;99.90;;;;;;5110354;28;20672;-76
2023/07/29 09:11:34;;;;;;;1.42;0.68;;;28.00;99.90;;;;;;5110385;28;20713;-75
2023/07/29 09:14:01;;;;;;;1.25;0.65;;;28.50;99.90;;;;;;5095379;28;20240;-76
2023/07/29 09:16:28;;;;;;;0.80;0.50;;;28.50;99.90;;;;;;5090177;28;20660;-76
2023/07/29 09:18:55;;;;;;;2.05;0.50;;;29.20;99.90;;;;;;5104191;28;20194;-74
2023/07/29 09:21:24;;;;;;;1.08;0.60;;;29.40;99.90;;;;;;5110559;28;20202;-76
2023/07/29 09:23:52;;;;;;;0.93;0.63;;;28.50;99.90;;;;;;5110111;28;20332;-75
2023/07/29 09:26:23;;;;;;;0.95;0.50;;;27.90;99.90;;;;;;5110415;28;20212;-75
2023/07/29 09:28:54;;;;;;;0.52;0.40;;;27.90;99.90;;;;;;5109853;28;20194;-76
2023/07/29 09:31:22;;;;;;;0.52;0.50;;;27.60;99.90;;;;;;5109986;28;20224;-75
2023/07/29 09:33:49;;;;;;;0.90;0.60;;;27.30;99.90;;;;;;5109062;28;20233;-74
2023/07/29 09:36:17;;;;;;;2.00;0.68;;;26.70;99.90;;;;;;5110310;28;20297;-75
2023/07/29 09:38:45;;;;;;;0.95;0.50;;;26.60;99.90;;;;;;5109949;28;20202;-75
2023/07/29 09:41:14;;;;;;;0.80;0.65;;;26.70;99.90;;;;;;5109775;28;20202;-74
2023/07/29 09:43:40;;;;;;;0.93;0.68;;;26.80;99.90;;;;;;5108210;28;20226;-76
2023/07/29 09:46:09;;;;;;;0.65;0.40;;;26.90;99.90;;;;;;5110134;28;20206;-75
2023/07/29 09:48:36;;;;;;;0.65;0.50;;;26.70;99.90;;;;;;5109733;28;20198;-75
2023/07/29 09:51:11;;;;;;;0.88;0.70;;;26.80;99.90;;;;;;5109819;28;20202;-76
2023/07/29 09:53:41;;;;;;;0.98;0.60;;;26.70;99.90;;;;;;5107185;28;20233;-75
2023/07/29 09:56:09;;;;;;;0.60;0.50;;;26.30;99.90;;;;;;5109672;28;20202;-74
2023/07/29 09:58:38;;;;;;;1.00;0.60;;;26.40;99.90;;;;;;5109594;28;20205;-74
2023/07/29 10:01:04;;;;;;;0.40;0.40;;;26.00;99.90;;;;;;5103245;28;20201;-74
2023/07/29 10:03:34;;;;;;;0.60;0.50;;;25.70;99.90;;;;;;5096113;28;20244;-75
2023/07/29 10:06:02;;;;;;;1.13;0.63;;;25.40;99.90;;;;;;5095716;28;20202;-74
2023/07/29 10:08:31;;;;;;;0.50;0.47;;;25.30;99.90;;;;;;5095647;28;20684;-73
2023/07/29 10:11:00;;;;;;;0.90;0.70;;;25.80;99.90;;;;;;5095339;28;20280;-73
2023/07/29 10:13:27;;;;;;;0.68;0.50;;;26.00;99.90;;;;;;5095771;28;20587;-75
2023/07/29 10:15:55;;;;;;;0.80;0.60;;;26.00;99.90;;;;;;5095758;28;20213;-73
2023/07/29 10:18:23;;;;;;;1.75;0.70;;;25.80;99.90;;;;;;5096020;28;20579;-75
2023/07/29 10:20:52;;;;;;;0.73;0.50;;;25.60;99.90;;;;;;5095752;28;20206;-74
2023/07/29 10:23:21;;;;;;;0.65;0.57;;;25.50;99.90;;;;;;5095481;28;20559;-74
2023/07/29 10:25:50;;;;;;;0.77;0.50;;;25.10;99.90;;;;;;5095560;28;20209;-75
2023/07/29 10:28:21;;;;;;;1.45;0.65;;;24.90;99.90;;;;;;5095266;28;20213;-74
2023/07/29 10:30:48;;;;;;;1.27;0.63;;;24.90;99.90;;;;;;5095666;28;20213;-74
2023/07/29 10:33:15;;;;;;;1.48;0.70;;;24.60;99.90;;;;;;5095263;28;20240;-74
2023/07/29 10:35:43;;;;;;;1.15;0.52;;;24.10;99.90;;;;;;5095329;28;20205;-74
2023/07/29 10:38:11;;;;;;;0.82;0.50;;;23.80;99.90;;;;;;5095306;28;20202;-74
2023/07/29 10:40:46;;;;;;;0.52;0.50;;;23.40;99.90;;;;;;5095227;28;20202;-74
2023/07/29 10:43:20;;;;;;;1.27;0.75;;;22.70;99.90;;;;;;5094952;28;20245;-74
2023/07/29 10:45:46;;;;;;;1.02;0.55;;;22.20;99.90;;;;;;5095074;28;20224;-73
2023/07/29 10:48:14;;;;;;;1.20;0.60;;;22.00;99.90;;;;;;5094832;28;20661;-73
2023/07/29 10:50:41;;;;;;;1.38;0.75;;;21.80;99.90;;;;;;5095106;28;20224;-74
2023/07/29 10:53:07;;;;;;;0.82;0.80;;;21.80;99.90;;;;;;5094566;28;20230;-74
2023/07/29 10:55:37;;;;;;;1.40;0.75;;;21.90;99.90;;;;;;5094816;28;20293;-74
2023/07/29 10:58:09;;;;;;;0.82;0.60;;;22.00;99.90;;;;;;5094341;28;20664;-75
2023/07/29 11:00:36;;;;;;;1.13;0.75;;;22.00;99.90;;;;;;5094262;28;20661;-73
2023/07/29 11:03:05;;;;;;;1.30;0.70;;;22.20;99.90;;;;;;5094132;28;20213;-73
2023/07/29 11:05:47;;;;;;;1.05;0.73;;;22.50;99.90;;;;;;5094632;28;20226;-74
2023/07/29 11:08:22;;;;;;;0.60;0.52;;;22.90;99.90;;;;;;5094123;28;20628;-74
2023/07/29 11:11:05;;;;;;;0.88;0.68;;;23.00;99.90;;;;;;5093912;28;20198;-74
2023/07/29 11:13:34;;;;;;;1.05;0.60;;;23.20;99.90;;;;;;5093835;28;20234;-74
2023/07/29 11:16:01;;;;;;;1.75;0.93;;;23.30;99.90;;;;;;5093317;28;20214;-74
2023/07/29 11:18:29;;;;;;;1.42;0.80;;;23.30;99.90;;;;;;5093995;28;20213;-74
2023/07/29 11:20:58;;;;;;;1.58;0.80;;;23.40;99.90;;;;;;5093996;28;20234;-74
2023/07/29 11:23:33;;;;;;;1.40;0.68;;;23.50;99.90;;;;;;5094178;28;20285;-73
2023/07/29 11:26:00;;;;;;;1.15;0.80;;;23.50;99.90;;;;;;5094383;28;20198;-74
2023/07/29 11:28:29;;;;;;;1.50;0.75;;;23.40;99.90;;;;;;5094226;28;20686;-74
2023/07/29 11:30:56;;;;;;;1.13;0.80;;;23.50;99.90;;;;;;5093832;28;20213;-74
2023/07/29 11:33:25;;;;;;;0.95;0.75;;;23.50;99.90;;;;;;5093302;28;20605;-74
2023/07/29 11:35:52;;;;;;;0.88;0.70;;;23.40;99.90;;;;;;5094059;28;20571;-74
2023/07/29 11:38:20;;;;;;;0.80;0.73;;;23.30;99.90;;;;;;5093993;28;20672;-73
2023/07/29 11:40:56;;;;;;;1.05;0.85;;;23.30;99.90;;;;;;5093974;28;20572;-74
2023/07/29 11:43:23;;;;;;;2.63;0.82;;;23.30;99.90;;;;;;5093716;28;20614;-74
2023/07/29 11:45:52;;;;;;;0.73;0.55;;;23.30;99.90;;;;;;5093538;28;20206;-74
2023/07/29 11:48:19;;;;;;;1.13;0.80;;;23.20;99.90;;;;;;5093700;28;20205;-74
2023/07/29 11:50:46;;;;;;;0.60;0.60;;;23.10;99.90;;;;;;5093541;28;20213;-74
2023/07/29 11:53:13;;;;;;;0.80;0.68;;;23.10;99.90;;;;;;5093300;28;20326;-74
2023/07/29 11:55:40;;;;;;;0.82;0.70;;;23.40;99.90;;;;;;5093332;28;20209;-73
2023/07/29 11:58:07;;;;;;;0.82;0.68;;;23.90;99.90;;;;;;5093309;28;20207;-74
2023/07/29 12:00:35;;;;;;;1.02;0.70;;;24.20;99.90;;;;;;5093606;28;20289;-74
2023/07/29 12:03:03;;;;;;;1.05;0.70;;;24.40;99.90;;;;;;5093524;28;20301;-75
2023/07/29 12:05:31;;;;;;;1.13;0.60;;;24.60;99.90;;;;;;5093694;28;20231;-74
2023/07/29 12:07:58;;;;;;;1.17;0.80;;;24.60;99.90;;;;;;5093244;28;20202;-74
2023/07/29 12:10:26;;;;;;;0.77;0.60;;;24.70;99.90;;;;;;5093830;28;20252;-74
2023/07/29 12:12:53;;;;;;;1.02;0.68;;;24.60;99.90;;;;;;5093243;28;20549;-74
2023/07/29 12:15:27;;;;;;;2.47;0.65;;;24.40;99.90;;;;;;5093381;28;20225;-74
2023/07/29 12:17:56;;;;;;;2.15;0.60;;;24.40;99.90;;;;;;5093078;28;20230;-74
2023/07/29 12:20:25;;;;;;;0.95;0.80;;;24.30;99.90;;;;;;5093509;28;20198;-74
2023/07/29 12:22:57;;;;;;;1.45;0.70;;;24.00;99.90;;;;;;5093219;28;20203;-74
2023/07/29 12:25:24;;;;;;;1.50;0.80;;;23.50;99.90;;;;;;5093158;28;20227;-74
2023/07/29 12:27:51;;;;;;;1.45;0.90;;;23.50;99.90;;;;;;5092986;28;20210;-74
2023/07/29 12:30:22;;;;;;;1.08;0.98;;;23.40;99.90;;;;;;5093141;28;20681;-75
2023/07/29 12:32:49;;;;;;;0.85;0.80;;;23.30;99.90;;;;;;5093474;28;20207;-74
2023/07/29 12:35:16;;;;;;;1.10;0.90;;;23.30;99.90;;;;;;5093229;28;20307;-74
2023/07/29 12:37:44;;;;;;;1.67;1.00;;;23.30;99.90;;;;;;5093248;28;20232;-74
2023/07/29 12:40:24;;;;;;;2.67;0.70;;;23.20;99.90;;;;;;5093128;28;20237;-74
2023/07/29 12:42:52;;;;;;;1.58;0.90;;;22.90;99.90;;;;;;5092822;28;20209;-74
2023/07/29 12:45:19;;;;;;;1.67;1.13;;;22.60;99.90;;;;;;5093142;28;20619;-74
2023/07/29 12:47:46;;;;;;;1.25;1.10;;;22.20;99.90;;;;;;5093182;28;20206;-74
2023/07/29 12:50:12;;;;;;;2.30;0.82;;;22.10;99.90;;;;;;5093295;28;20211;-74
2023/07/29 12:52:39;;;;;;;2.25;1.38;;;22.10;99.90;;;;;;5092831;28;20221;-74
2023/07/29 12:55:12;;;;;;;0.80;0.80;;;22.20;99.90;;;;;;5092709;28;20256;-74
2023/07/29 12:57:40;;;;;;;1.40;0.90;;;22.30;99.90;;;;;;5093157;28;20206;-75
2023/07/29 13:00:08;;;;;;;3.05;1.33;;;22.20;99.90;;;;;;5093243;28;20198;-74
2023/07/29 13:02:35;;;;;;;1.38;1.00;;;22.10;99.90;;;;;;5092875;28;20569;-74
2023/07/29 13:05:02;;;;;;;1.15;0.93;;;22.20;99.90;;;;;;5091909;28;20317;-75
2023/07/29 13:07:29;;;;;;;2.05;1.10;;;22.30;99.90;;;;;;5092302;28;20202;-74
2023/07/29 13:09:56;;;;;;;1.40;1.10;;;22.40;99.90;;;;;;5092118;28;20205;-74
2023/07/29 13:12:24;;;;;;;1.65;1.20;;;22.70;99.90;;;;;;5092495;28;20218;-75
2023/07/29 13:14:51;;;;;;;1.40;0.93;;;22.80;99.90;;;;;;5092274;28;20236;-74
2023/07/29 13:17:17;;;;;;;1.13;0.90;;;23.10;99.90;;;;;;5092428;28;20202;-74
2023/07/29 13:19:44;;;;;;;1.40;1.17;;;23.30;99.90;;;;;;5092268;28;20213;-74
2023/07/29 13:22:11;;;;;;;0.80;0.80;;;23.30;99.90;;;;;;5092126;28;20209;-75
2023/07/29 13:24:38;;;;;;;1.45;0.90;;;23.30;99.90;;;;;;5092162;28;20245;-74
2023/07/29 13:27:05;;;;;;;2.35;1.10;;;23.10;99.90;;;;;;5092183;28;20281;-74
2023/07/29 13:29:33;;;;;;;0.90;0.80;;;23.20;99.90;;;;;;5092098;28;20202;-74
2023/07/29 13:32:00;;;;;;;1.98;1.00;;;23.30;99.90;;;;;;5092394;28;20202;-74
2023/07/29 13:34:27;;;;;;;2.65;0.85;;;23.50;99.90;;;;;;5091979;28;20241;-74
2023/07/29 13:36:54;;;;;;;1.20;1.00;;;23.70;99.90;;;;;;5091931;28;20206;-74
2023/07/29 13:39:21;;;;;;;0.98;0.88;;;23.80;99.90;;;;;;5093212;28;20203;-74
2023/07/29 13:41:48;;;;;;;0.95;0.88;;;23.90;99.90;;;;;;5089063;28;20221;-74
2023/07/29 13:44:14;;;;;;;1.10;0.80;;;24.10;99.90;;;;;;5086196;28;20252;-73
2023/07/29 13:46:43;;;;;;;0.95;0.73;;;24.30;99.90;;;;;;5095651;28;20213;-73
2023/07/29 13:49:09;;;;;;;1.25;0.80;;;24.40;99.90;;;;;;5096196;28;20207;-73
2023/07/29 13:51:36;;;;;;;0.80;0.70;;;24.60;99.90;;;;;;5091588;28;20203;-72
2023/07/29 13:54:03;;;;;;;0.90;0.73;;;24.50;99.90;;;;;;5075483;28;20231;-72
2023/07/29 13:56:30;;;;;;;1.75;0.80;;;24.50;99.90;;;;;;5079048;28;20657;-71
2023/07/29 13:58:57;;;;;;;1.00;0.80;;;24.40;99.90;;;;;;5095925;28;20207;-73
2023/07/29 14:01:24;;;;;;;1.02;0.80;;;24.50;99.90;;;;;;5095494;28;20252;-72
2023/07/29 14:03:52;;;;;;;0.50;0.50;;;24.60;99.90;;;;;;5088221;28;20692;-73
2023/07/29 14:06:19;;;;;;;0.93;0.68;;;24.40;99.90;;;;;;5093521;28;20229;-73
2023/07/29 14:08:46;;;;;;;1.20;0.93;;;24.40;99.90;;;;;;5094034;28;20686;-72
2023/07/29 14:11:12;;;;;;;0.85;0.60;;;24.30;99.90;;;;;;5093285;28;20305;-71
2023/07/29 14:13:39;;;;;;;0.95;0.52;;;24.30;99.90;;;;;;5091047;28;20593;-73
2023/07/29 14:16:06;;;;;;;1.08;0.60;;;24.40;99.90;;;;;;5074200;28;20208;-71
2023/07/29 14:18:33;;;;;;;1.20;0.57;;;24.60;99.90;;;;;;5092819;28;20651;-70
2023/07/29 14:21:01;;;;;;;0.80;0.60;;;24.60;99.90;;;;;;5094371;28;20198;-72
2023/07/29 14:23:28;;;;;;;0.93;0.50;;;24.70;99.90;;;;;;5093176;28;20941;-71
2023/07/29 14:25:54;;;;;;;0.60;0.60;;;24.70;99.90;;;;;;5093603;28;20228;-71
2023/07/29 14:28:21;;;;;;;0.60;0.50;;;24.60;99.90;;;;;;5093915;28;20205;-76
2023/07/29 14:30:48;;;;;;;0.80;0.80;;;24.60;99.90;;;;;;5093440;28;20530;-71
2023/07/29 14:33:15;;;;;;;0.63;0.60;;;24.60;99.90;;;;;;5090939;28;20237;-73
2023/07/29 14:35:42;;;;;;;1.10;0.60;;;24.50;99.90;;;;;;5093181;28;20536;-68
2023/07/29 14:38:10;;;;;;;0.90;0.55;;;24.60;99.90;;;;;;5093312;28;20207;-74
2023/07/29 14:40:37;;;;;;;1.60;0.60;;;24.60;99.90;;;;;;5081424;28;20199;-72
2023/07/29 14:43:04;;;;;;;0.45;0.35;;;24.60;99.90;;;;;;5086816;28;20289;-71
2023/07/29 14:45:30;;;;;;;0.55;0.40;;;24.80;99.90;;;;;;5092716;28;20231;-69
2023/07/29 14:47:57;;;;;;;0.63;0.50;;;24.80;99.90;;;;;;5092153;28;20195;-69
2023/07/29 14:50:24;;;;;;;0.75;0.60;;;24.60;99.90;;;;;;5093707;28;20209;-69
2023/07/29 14:52:51;;;;;;;0.80;0.57;;;24.40;99.90;;;;;;5090770;28;20301;-70
2023/07/29 14:55:20;;;;;;;1.00;0.60;;;24.40;99.90;;;;;;5092832;28;20260;-69
2023/07/29 14:57:47;;;;;;;0.70;0.55;;;24.50;99.90;;;;;;5092939;28;20226;-69
2023/07/29 15:00:14;;;;;;;0.82;0.52;;;24.50;99.90;;;;;;5093323;28;20198;-71
2023/07/29 15:02:41;;;;;;;0.65;0.60;;;24.40;99.90;;;;;;5090261;28;20236;-72
2023/07/29 15:05:09;;;;;;;1.08;0.60;;;24.40;99.90;;;;;;5094740;28;20528;-75
2023/07/29 15:07:36;;;;;;;0.55;0.50;;;24.50;99.90;;;;;;5088744;28;20195;-75
2023/07/29 15:10:03;;;;;;;0.63;0.57;;;24.80;99.90;;;;;;5074595;28;20290;-73
2023/07/29 15:12:31;;;;;;;0.65;0.60;;;24.60;99.90;;;;;;5081531;28;20206;-76
2023/07/29 15:14:58;;;;;;;0.47;0.40;;;24.60;99.90;;;;;;5094050;28;20231;-71
2023/07/29 15:17:25;;;;;;;0.90;0.60;;;24.50;99.90;;;;;;5094538;28;20199;-70
2023/07/29 15:19:52;;;;;;;1.05;0.60;;;24.60;99.90;;;;;;5094606;28;20279;-70
2023/07/29 15:22:19;;;;;;;0.75;0.55;;;24.70;99.90;;;;;;5089845;28;20293;-73
2023/07/29 15:24:46;;;;;;;0.55;0.50;;;24.90;99.90;;;;;;5094296;28;20437;-72
2023/07/29 15:27:13;;;;;;;1.95;0.40;;;24.90;99.90;;;;;;5094016;28;20199;-70
2023/07/29 15:29:41;;;;;;;1.60;0.50;;;24.90;99.90;;;;;;5094084;28;20214;-71
2023/07/29 15:32:08;;;;;;;1.42;0.50;;;24.90;99.90;;;;;;5088888;28;20286;-73
2023/07/29 15:34:35;;;;;;;0.45;0.35;;;24.80;99.90;;;;;;5092857;28;20238;-70
2023/07/29 15:37:03;;;;;;;1.10;0.63;;;25.00;99.90;;;;;;5082070;28;20633;-73
2023/07/29 15:39:30;;;;;;;1.98;0.70;;;24.90;99.90;;;;;;5094141;28;20202;-70
2023/07/29 15:41:57;;;;;;;0.40;0.32;;;24.60;99.90;;;;;;5088046;28;20646;-72
2023/07/29 15:44:23;;;;;;;1.25;0.50;;;24.40;99.90;;;;;;5093905;28;20643;-73
2023/07/29 15:46:52;;;;;;;0.50;0.40;;;24.10;99.90;;;;;;5094181;28;20209;-70
2023/07/29 15:49:19;;;;;;;0.63;0.50;;;24.00;99.90;;;;;;5073722;28;20203;-72
2023/07/29 15:51:46;;;;;;;0.52;0.40;;;23.70;99.90;;;;;;5073138;28;20205;-70
2023/07/29 15:54:13;;;;;;;0.85;0.52;;;23.70;99.90;;;;;;5092598;28;20233;-70
2023/07/29 15:56:40;;;;;;;0.45;0.40;;;23.70;99.90;;;;;;5093627;28;20301;-70
2023/07/29 15:59:07;;;;;;;0.52;0.40;;;23.90;99.90;;;;;;5093670;28;20206;-72
2023/07/29 16:01:34;;;;;;;0.50;0.30;;;24.00;99.90;;;;;;5088359;28;20721;-73
2023/07/29 16:04:02;;;;;;;0.38;0.32;;;24.00;99.90;;;;;;5090468;28;20221;-71
2023/07/29 16:06:29;;;;;;;0.95;0.60;;;23.90;99.90;;;;;;5093671;28;20635;-71
2023/07/29 16:08:56;;;;;;;0.85;0.60;;;23.80;99.90;;;;;;5093258;28;20207;-69
2023/07/29 16:11:23;;;;;;;0.70;0.50;;;23.80;99.90;;;;;;5091396;28;20203;-72
2023/07/29 16:13:50;;;;;;;0.52;0.40;;;23.80;99.90;;;;;;5088265;28;20637;-71
2023/07/29 16:16:17;;;;;;;0.85;0.60;;;23.90;99.90;;;;;;5093347;28;20230;-69
2023/07/29 16:18:43;;;;;;;0.85;0.60;;;23.90;99.90;;;;;;5093524;28;20203;-73
2023/07/29 16:21:11;;;;;;;0.65;0.50;;;23.90;99.90;;;;;;5093066;28;20210;-70
2023/07/29 16:23:38;;;;;;;0.47;0.40;;;24.00;99.90;;;;;;5093320;28;20222;-73
2023/07/29 16:26:05;;;;;;;0.93;0.70;;;23.90;99.90;;;;;;5093614;28;20206;-71
2023/07/29 16:28:32;;;;;;;0.55;0.50;;;23.80;99.90;;;;;;5093186;28;20660;-70
2023/07/29 16:30:59;;;;;;;0.90;0.63;;;23.70;99.90;;;;;;5093206;28;20215;-73
2023/07/29 16:33:25;;;;;;;0.82;0.60;;;23.60;99.90;;;;;;5093025;28;20203;-70
2023/07/29 16:35:52;;;;;;;2.15;1.20;;;23.70;99.90;;;;;;5093096;28;20240;-71
2023/07/29 16:38:20;;;;;;;1.10;0.70;;;23.80;99.90;;;;;;5093115;28;20203;-70
2023/07/29 16:40:47;;;;;;;0.55;0.50;;;24.00;99.90;;;;;;5093150;28;20560;-72
2023/07/29 16:43:14;;;;;;;1.13;0.70;;;24.00;99.90;;;;;;5093103;28;20202;-72
2023/07/29 16:45:41;;;;;;;1.70;0.50;;;23.90;99.90;;;;;;5093137;28;20289;-71
2023/07/29 16:48:08;;;;;;;1.00;0.60;;;23.80;99.90;;;;;;5093081;28;20202;-72
2023/07/29 16:50:35;;;;;;;0.88;0.70;;;23.80;99.90;;;;;;5092874;28;20293;-73
2023/07/29 16:53:02;;;;;;;0.60;0.60;;;23.80;99.90;;;;;;5092886;28;20855;-73
2023/07/29 16:55:30;;;;;;;1.25;0.60;;;23.80;99.90;;;;;;5092872;28;20329;-70
2023/07/29 16:57:57;;;;;;;0.52;0.50;;;23.80;99.90;;;;;;5092756;28;20309;-73
2023/07/29 17:00:24;;;;;;;0.60;0.50;;;23.70;99.90;;;;;;5092882;28;20722;-71
2023/07/29 17:02:51;;;;;;;1.90;0.75;;;23.80;99.90;;;;;;5092835;28;20289;-70
2023/07/29 17:05:18;;;;;;;0.65;0.63;;;23.60;99.90;;;;;;5092741;28;20727;-71
2023/07/29 17:07:44;;;;;;;1.92;0.45;;;23.60;99.90;;;;;;5093100;28;20203;-70
2023/07/29 17:10:11;;;;;;;1.73;0.50;;;23.60;99.90;;;;;;5092814;28;20221;-70
2023/07/29 17:12:40;;;;;;;0.73;0.43;;;23.50;99.90;;;;;;5092533;28;20710;-73
2023/07/29 17:15:08;;;;;;;1.17;0.70;;;23.40;99.90;;;;;;5094878;28;20328;-72
2023/07/29 17:17:35;;;;;;;1.13;0.60;;;23.50;99.90;;;;;;5096873;28;20210;-73
2023/07/29 17:20:02;;;;;;;2.70;0.90;;;23.50;99.90;;;;;;5096611;28;20198;-71
2023/07/29 17:22:31;;;;;;;2.40;0.90;;;23.40;99.90;;;;;;5096780;28;20206;-73
2023/07/29 17:24:58;;;;;;;2.75;0.70;;;23.30;99.90;;;;;;5096862;28;20236;-73
2023/07/29 17:27:24;;;;;;;1.33;0.50;;;23.30;99.90;;;;;;5097026;28;20228;-70
2023/07/29 17:29:53;;;;;;;3.22;0.70;;;23.20;99.90;;;;;;5096561;28;20202;-72
2023/07/29 17:32:20;;;;;;;1.40;0.60;;;23.20;99.90;;;;;;5096233;28;20202;-72
2023/07/29 17:34:47;;;;;;;1.60;0.65;;;23.10;99.90;;;;;;5096462;28;20222;-70
2023/07/29 17:37:13;;;;;;;2.47;0.85;;;23.00;99.90;;;;;;5095957;28;20662;-73
2023/07/29 17:39:41;;;;;;;3.35;1.00;;;22.90;99.90;;;;;;5096374;28;20208;-72
2023/07/29 17:42:09;;;;;;;1.52;0.60;;;22.70;99.90;;;;;;5096568;28;20234;-72
2023/07/29 17:44:36;;;;;;;0.80;0.60;;;22.70;99.90;;;;;;5096289;28;20272;-73
2023/07/29 17:47:04;;;;;;;1.02;0.63;;;22.80;99.90;;;;;;5096381;28;20213;-71
2023/07/29 17:49:31;;;;;;;3.83;0.70;;;22.90;99.90;;;;;;5096351;28;20203;-72
2023/07/29 17:51:58;;;;;;;1.30;0.60;;;22.90;99.90;;;;;;5096207;28;20664;-73
2023/07/29 17:54:25;;;;;;;1.27;0.80;;;22.90;99.90;;;;;;5096251;28;20222;-71
2023/07/29 17:56:52;;;;;;;3.10;0.70;;;22.90;99.90;;;;;;5096055;28;20230;-71
2023/07/29 17:59:18;;;;;;;2.05;0.98;;;22.90;99.90;;;;;;5095775;28;20546;-72
2023/07/29 18:01:48;;;;;;;1.77;0.70;;;22.90;99.90;;;;;;5095582;28;20244;-73
2023/07/29 18:04:17;;;;;;;2.30;0.60;;;22.80;99.90;;;;;;5096026;28;20226;-71
2023/07/29 18:06:44;;;;;;;1.33;0.70;;;22.90;99.90;;;;;;5096228;28;20301;-73
2023/07/29 18:09:10;;;;;;;1.48;0.70;;;22.80;99.90;;;;;;5096021;28;20199;-70
2023/07/29 18:11:40;;;;;;;1.20;0.65;;;22.70;99.90;;;;;;5096032;28;20213;-72
2023/07/29 18:14:07;;;;;;;1.83;0.60;;;22.70;99.90;;;;;;5095787;28;20248;-72
2023/07/29 18:16:37;;;;;;;2.05;0.70;;;22.60;99.90;;;;;;5095819;28;20235;-73
2023/07/29 18:19:04;;;;;;;2.60;1.00;;;22.60;99.90;;;;;;5095461;28;20684;-70
2023/07/29 18:21:32;;;;;;;2.30;0.65;;;22.70;99.90;;;;;;5095496;28;20203;-73
2023/07/29 18:23:59;;;;;;;4.35;1.05;;;22.50;99.90;;;;;;5095428;28;20222;-72
2023/07/29 18:26:26;;;;;;;2.03;0.80;;;22.40;99.90;;;;;;5095152;28;20209;-71
2023/07/29 18:28:53;;;;;;;1.48;0.60;;;22.20;99.90;;;;;;5095133;28;20653;-73
2023/07/29 18:31:20;;;;;;;1.30;0.65;;;22.10;99.90;;;;;;5095464;28;20205;-72
2023/07/29 18:33:46;;;;;;;3.05;0.70;;;22.10;99.90;;;;;;5095280;28;20232;-72
2023/07/29 18:36:15;;;;;;;4.95;0.73;;;22.00;99.90;;;;;;5095552;28;20709;-73
2023/07/29 18:38:43;;;;;;;3.85;0.75;;;22.00;99.90;;;;;;5095341;28;20209;-72
2023/07/29 18:41:10;;;;;;;2.25;0.70;;;21.90;99.90;;;;;;5095086;28;20568;-72
2023/07/29 18:43:36;;;;;;;4.28;0.82;;;22.00;99.90;;;;;;5094949;28;20222;-73
2023/07/29 18:46:03;;;;;;;2.25;0.88;;;22.00;99.90;;;;;;5095258;28;20289;-72
2023/07/29 18:48:30;;;;;;;1.85;0.82;;;21.90;99.90;;;;;;5095294;28;20207;-72
2023/07/29 18:50:57;;;;;;;1.83;0.73;;;21.90;99.90;;;;;;5075464;28;20709;-72
2023/07/29 18:53:23;;;;;;;1.85;0.85;;;21.80;99.90;;;;;;5081042;28;20211;-72
2023/07/29 18:55:52;;;;;;;2.75;0.82;;;21.80;99.90;;;;;;5083828;28;20235;-71
2023/07/29 18:58:19;;;;;;;3.78;0.80;;;21.70;99.90;;;;;;5085058;28;20212;-72
2023/07/29 19:00:48;;;;;;;1.65;0.60;;;21.70;99.90;;;;;;5082317;28;20681;-72
2023/07/29 19:03:15;;;;;;;1.80;0.52;;;21.60;99.90;;;;;;5079324;28;20657;-72
2023/07/29 19:05:42;;;;;;;1.30;0.80;;;21.50;99.90;;;;;;5085176;28;20290;-70
2023/07/29 19:08:11;;;;;;;4.05;1.00;;;21.50;99.90;;;;;;5087055;28;20200;-72
2023/07/29 19:10:38;;;;;;;1.30;0.70;;;21.30;99.90;;;;;;5074300;28;20210;-72
2023/07/29 19:13:06;;;;;;;1.50;0.57;;;21.20;99.90;;;;;;5087366;28;20205;-71
2023/07/29 19:15:33;;;;;;;3.42;1.05;;;21.10;99.90;;;;;;5086855;28;20234;-71
2023/07/29 19:17:59;;;;;;;1.98;0.60;;;21.00;99.90;;;;;;5088742;28;20194;-72
2023/07/29 19:20:26;;;;;;;2.25;0.70;;;21.00;99.90;;;;;;5091218;28;20213;-73
2023/07/29 19:22:53;;;;;;;1.42;0.60;;;20.90;99.90;;;;;;5087131;28;20198;-71
2023/07/29 19:25:20;;;;;;;1.52;0.63;;;20.90;99.90;;;;;;5080494;28;20233;-72
2023/07/29 19:27:47;;;;;;;2.08;1.02;;;20.90;99.90;;;;;;5078542;28;20203;-72
2023/07/29 19:30:15;;;;;;;1.95;0.80;;;20.80;99.90;;;;;;5089089;28;20206;-71
2023/07/29 19:32:42;;;;;;;2.67;0.80;;;20.80;99.90;;;;;;5079355;28;20212;-72
2023/07/29 19:35:09;;;;;;;1.17;0.80;;;20.70;99.90;;;;;;5092357;28;20773;-72
2023/07/29 19:37:35;;;;;;;3.70;1.00;;;20.60;99.90;;;;;;5075060;28;20330;-72
2023/07/29 19:40:02;;;;;;;4.82;0.93;;;20.60;99.90;;;;;;5091123;28;21317;-71
2023/07/29 19:42:29;;;;;;;1.85;0.80;;;20.50;99.90;;;;;;5075626;28;20608;-71
2023/07/29 19:44:56;;;;;;;2.65;0.60;;;20.40;99.90;;;;;;5091017;28;20215;-71
2023/07/29 19:47:24;;;;;;;3.00;0.82;;;20.40;99.90;;;;;;5083718;28;20207;-72
2023/07/29 19:49:51;;;;;;;2.10;0.70;;;20.40;99.90;;;;;;5088717;28;20297;-72
2023/07/29 19:52:18;;;;;;;1.45;0.60;;;20.30;99.90;;;;;;5083669;28;20212;-71
2023/07/29 19:54:45;;;;;;;2.53;0.90;;;20.30;99.90;;;;;;5087142;28;20227;-72
2023/07/29 19:57:12;;;;;;;2.03;0.68;;;20.20;99.90;;;;;;5079022;28;20242;-71
2023/07/29 19:59:39;;;;;;;5.03;0.90;;;20.20;99.90;;;;;;5074997;28;20743;-72
2023/07/29 20:02:06;;;;;;;3.40;0.98;;;20.20;99.90;;;;;;5075910;28;20203;-72
2023/07/29 20:04:34;;;;;;;2.75;0.95;;;20.00;99.90;;;;;;5085392;28;20225;-72
2023/07/29 20:07:01;;;;;;;3.63;0.82;;;19.90;99.90;;;;;;5088635;28;20668;-72
2023/07/29 20:09:28;;;;;;;1.38;0.60;;;19.90;99.90;;;;;;5082149;28;20215;-72
2023/07/29 20:11:54;;;;;;;2.22;0.70;;;19.80;99.90;;;;;;5088699;28;20617;-72
2023/07/29 20:14:21;;;;;;;2.95;0.70;;;19.70;99.90;;;;;;5086495;28;20226;-71
2023/07/29 20:16:48;;;;;;;3.38;0.60;;;19.70;99.90;;;;;;5089092;28;20317;-72
2023/07/29 20:19:15;;;;;;;2.33;0.70;;;19.70;99.90;;;;;;5084575;28;20638;-72
2023/07/29 20:21:43;;;;;;;1.88;0.57;;;19.60;99.90;;;;;;5088123;28;20209;-71
2023/07/29 20:24:10;;;;;;;2.80;0.80;;;19.60;99.90;;;;;;5084032;28;20574;-72
2023/07/29 20:26:36;;;;;;;2.35;0.70;;;19.50;99.90;;;;;;5086790;28;20204;-71
2023/07/29 20:29:03;;;;;;;4.72;0.93;;;19.50;99.90;;;;;;5081297;28;20200;-72
2023/07/29 20:31:30;;;;;;;2.40;1.00;;;19.50;99.90;;;;;;5087150;28;20289;-72
2023/07/29 20:33:57;;;;;;;1.55;0.70;;;19.50;99.90;;;;;;5074995;28;20253;-71
2023/07/29 20:36:27;;;;;;;2.85;0.70;;;19.40;99.90;;;;;;5083295;28;20237;-70
2023/07/29 20:38:55;;;;;;;3.50;0.60;;;19.30;99.90;;;;;;5078885;28;20319;-72
2023/07/29 20:41:22;;;;;;;1.98;0.80;;;19.30;99.90;;;;;;5081487;28;20719;-72
2023/07/29 20:43:50;;;;;;;1.77;0.80;;;19.30;99.90;;;;;;5087697;28;20218;-72
2023/07/29 20:46:21;;;;;;;2.70;0.98;;;19.20;99.90;;;;;;5086221;28;20237;-72
2023/07/29 20:48:48;;;;;;;2.33;0.88;;;19.10;99.90;;;;;;5086352;28;20595;-72
2023/07/29 20:51:16;;;;;;;3.03;0.70;;;19.10;99.90;;;;;;5093068;28;20203;-71
2023/07/29 20:53:43;;;;;;;3.63;0.57;;;19.10;99.90;;;;;;5091103;28;20585;-72
2023/07/29 20:56:13;;;;;;;1.13;0.60;;;19.10;99.90;;;;;;5087835;28;20345;-72
